Time;durP1;ratioP1;P1;durP2;ratioP2;P2;SDS_P1;SDS_P2;PMS_P1;PMS_P2;Temp;Humidity;BMP_temperature;BMP_pressure;BME280_temperature;BME280_humidity;BME280_pressure;Samples;Min_cycle;Max_cycle;Signal;HPM_P1;HPM_P2
2022/08/09 00:01:51;;;;;;;2.10;1.10;;;20.50;61.40;20.80;97111.00;;;;5079090;28;20200;-86
2022/08/09 00:04:19;;;;;;;1.43;1.23;;;20.50;61.50;20.80;97109.00;;;;5091560;28;20298;-87
2022/08/09 00:06:48;;;;;;;1.53;1.43;;;20.40;61.60;20.80;97117.00;;;;5086572;28;20216;-87
2022/08/09 00:09:16;;;;;;;1.67;1.57;;;20.40;61.80;20.80;97116.00;;;;5088360;28;20199;-87
2022/08/09 00:11:45;;;;;;;1.17;1.13;;;20.40;61.90;20.80;97114.00;;;;5095024;28;20656;-87
2022/08/09 00:14:13;;;;;;;1.50;1.33;;;20.40;62.00;20.80;97119.00;;;;5094596;28;20200;-88
2022/08/09 00:16:41;;;;;;;1.10;1.10;;;20.30;62.10;20.70;97116.00;;;;5094346;28;20636;-86
2022/08/09 00:19:09;;;;;;;1.30;1.10;;;20.30;62.20;20.70;97116.00;;;;5095707;28;20248;-87
2022/08/09 00:21:36;;;;;;;1.10;1.07;;;20.30;62.10;20.70;97125.00;;;;5097412;28;20275;-87
2022/08/09 00:24:05;;;;;;;1.40;1.27;;;20.30;62.10;20.60;97112.00;;;;5096438;28;20838;-87
2022/08/09 00:26:32;;;;;;;2.43;1.30;;;20.30;62.20;20.60;97114.00;;;;5093721;28;20242;-87
2022/08/09 00:29:00;;;;;;;1.87;1.40;;;20.20;62.20;20.60;97118.00;;;;5095094;28;20223;-87
2022/08/09 00:31:27;;;;;;;1.50;1.40;;;20.20;62.30;20.50;97118.00;;;;5079365;28;20224;-87
2022/08/09 00:33:56;;;;;;;4.77;1.83;;;20.20;62.30;20.50;97115.00;;;;5087203;28;20233;-86
2022/08/09 00:36:25;;;;;;;1.43;1.37;;;20.20;62.40;20.50;97114.00;;;;5094110;28;20238;-86
2022/08/09 00:38:53;;;;;;;1.57;1.47;;;20.10;62.30;20.40;97116.00;;;;5094338;28;20306;-87
2022/08/09 00:41:21;;;;;;;1.43;1.43;;;20.10;62.40;20.40;97112.00;;;;5094578;28;20230;-87
2022/08/09 00:43:49;;;;;;;1.50;1.40;;;20.10;62.60;20.40;97112.00;;;;5094856;28;20587;-86
2022/08/09 00:46:17;;;;;;;1.23;1.20;;;20.00;62.70;20.30;97111.00;;;;5093445;28;20195;-87
2022/08/09 00:48:44;;;;;;;1.57;1.47;;;20.00;62.70;20.30;97116.00;;;;5095058;28;20677;-86
2022/08/09 00:51:17;;;;;;;1.20;1.10;;;19.90;62.60;20.30;97116.00;;;;5091632;28;20280;-87
2022/08/09 00:53:46;;;;;;;1.60;1.47;;;19.90;62.80;20.20;97117.00;;;;5094677;28;20250;-86
2022/08/09 00:56:15;;;;;;;1.50;1.50;;;19.90;62.70;20.20;97116.00;;;;5093465;28;20199;-87
2022/08/09 00:58:42;;;;;;;1.77;1.33;;;19.80;62.80;20.10;97117.00;;;;5094538;28;20191;-86
2022/08/09 01:01:15;;;;;;;1.57;1.40;;;19.80;63.60;20.10;97117.00;;;;5094187;28;20223;-87
2022/08/09 01:03:53;;;;;;;2.33;1.43;;;19.80;63.20;20.00;97120.00;;;;5094532;28;20272;-87
2022/08/09 01:06:33;;;;;;;2.17;1.60;;;19.80;63.50;20.00;97117.00;;;;5094107;28;20246;-87
2022/08/09 01:09:13;;;;;;;2.20;1.60;;;19.70;63.60;20.00;97126.00;;;;5094610;28;20206;-87
2022/08/09 01:11:55;;;;;;;2.00;1.90;;;19.70;63.60;20.00;97126.00;;;;5093289;28;20215;-87
2022/08/09 01:14:30;;;;;;;1.67;1.57;;;19.60;63.60;19.90;97128.00;;;;5093471;28;20544;-87
2022/08/09 01:17:18;;;;;;;1.70;1.60;;;19.60;63.50;19.90;97127.00;;;;5092758;28;20297;-87
2022/08/09 01:19:57;;;;;;;1.70;1.60;;;19.60;63.60;19.90;97125.00;;;;5093716;28;20199;-86
2022/08/09 01:22:58;;;;;;;2.10;2.00;;;19.60;63.60;19.90;97127.00;;;;5093998;28;20180;-87
2022/08/09 01:25:43;;;;;;;2.23;1.70;;;19.50;63.90;19.80;97132.00;;;;5079894;28;20219;-86
2022/08/09 01:28:14;;;;;;;1.90;1.57;;;19.50;63.60;19.80;97128.00;;;;5093533;28;20719;-87
2022/08/09 01:30:44;;;;;;;1.67;1.57;;;19.50;63.60;19.80;97129.00;;;;5093949;28;20331;-86
2022/08/09 01:33:14;;;;;;;2.03;1.53;;;19.50;63.70;19.80;97125.00;;;;5093934;28;20194;-88
2022/08/09 01:35:50;;;;;;;1.60;1.50;;;19.40;63.70;19.80;97133.00;;;;5084317;28;20282;-87
2022/08/09 01:38:29;;;;;;;1.93;1.57;;;19.40;64.00;19.80;97124.00;;;;5079181;28;20216;-87
2022/08/09 01:41:04;;;;;;;1.83;1.73;;;19.40;63.90;19.70;97128.00;;;;5090398;28;20246;-87
2022/08/09 01:43:36;;;;;;;2.13;1.63;;;19.40;64.00;19.70;97126.00;;;;5093413;28;20202;-87
2022/08/09 01:46:05;;;;;;;1.57;1.47;;;19.40;64.20;19.70;97130.00;;;;5092815;28;20251;-86
2022/08/09 01:48:35;;;;;;;1.73;1.63;;;19.40;64.20;19.70;97132.00;;;;5092605;28;20203;-86
2022/08/09 01:51:04;;;;;;;2.27;2.07;;;19.40;64.40;19.70;97130.00;;;;5093561;28;20219;-86
2022/08/09 01:53:33;;;;;;;2.00;1.70;;;19.40;64.40;19.70;97126.00;;;;5078921;28;20299;-87
2022/08/09 01:56:03;;;;;;;2.00;1.90;;;19.30;64.30;19.70;97129.00;;;;5093252;28;20207;-87
2022/08/09 01:58:34;;;;;;;1.70;1.60;;;19.40;64.50;19.80;97131.00;;;;5092596;28;20310;-87
2022/08/09 02:01:03;;;;;;;1.90;1.80;;;19.40;64.50;19.80;97133.00;;;;5086222;28;20653;-86
2022/08/09 02:03:35;;;;;;;1.73;1.70;;;19.40;64.60;19.80;97134.00;;;;5093024;28;20219;-86
2022/08/09 02:06:06;;;;;;;2.30;2.10;;;19.40;65.40;19.80;97130.00;;;;5083727;28;20578;-87
2022/08/09 02:08:36;;;;;;;1.63;1.60;;;19.40;64.60;19.80;97123.00;;;;5093341;28;20740;-87
2022/08/09 02:11:06;;;;;;;4.67;2.00;;;19.40;64.60;19.80;97120.00;;;;5073092;28;20879;-86
2022/08/09 02:13:37;;;;;;;1.97;1.77;;;19.40;64.60;19.80;97119.00;;;;5072577;28;20337;-87
2022/08/09 02:16:10;;;;;;;1.73;1.63;;;19.50;64.70;19.80;97127.00;;;;5090856;28;20200;-86
2022/08/09 02:18:41;;;;;;;2.17;1.83;;;19.40;64.60;19.90;97130.00;;;;5093182;28;20213;-86
2022/08/09 02:21:16;;;;;;;1.80;1.70;;;19.40;64.60;19.90;97130.00;;;;5093126;28;20227;-86
2022/08/09 02:23:52;;;;;;;1.90;1.70;;;19.50;64.70;19.90;97131.00;;;;5092833;28;20343;-86
2022/08/09 02:26:21;;;;;;;1.80;1.70;;;19.50;64.70;19.90;97129.00;;;;5085020;28;20235;-87
2022/08/09 02:28:55;;;;;;;1.80;1.70;;;19.50;64.60;19.90;97123.00;;;;5092896;28;20199;-86
2022/08/09 02:31:30;;;;;;;1.93;1.83;;;19.50;64.70;19.90;97127.00;;;;5086136;28;20611;-87
2022/08/09 02:34:03;;;;;;;2.00;1.90;;;19.50;64.60;19.90;97132.00;;;;5085225;28;20545;-87
2022/08/09 02:36:35;;;;;;;1.70;1.60;;;19.50;64.60;19.90;97125.00;;;;5089340;28;20222;-87
2022/08/09 02:39:08;;;;;;;1.93;1.83;;;19.50;64.60;19.90;97126.00;;;;5092641;28;20192;-87
2022/08/09 02:41:42;;;;;;;1.70;1.60;;;19.50;64.60;19.90;97129.00;;;;5092775;28;20189;-87
2022/08/09 02:44:17;;;;;;;1.70;1.60;;;19.50;65.30;19.90;97124.00;;;;5092189;28;20237;-87
2022/08/09 02:46:46;;;;;;;1.77;1.67;;;19.50;64.60;19.90;97132.00;;;;5091925;28;20211;-87
2022/08/09 02:49:18;;;;;;;2.37;1.87;;;19.50;64.60;19.90;97126.00;;;;5092246;28;20282;-87
2022/08/09 02:51:53;;;;;;;1.87;1.77;;;19.50;64.70;19.90;97134.00;;;;5092798;28;20195;-87
2022/08/09 02:54:23;;;;;;;2.30;2.10;;;19.50;64.60;19.80;97129.00;;;;5098186;28;20237;-86
2022/08/09 02:56:52;;;;;;;2.17;1.70;;;19.50;64.50;19.80;97132.00;;;;5092348;28;20319;-87
2022/08/09 02:59:24;;;;;;;2.73;2.07;;;19.50;64.50;19.80;97131.00;;;;5092445;28;20282;-87
2022/08/09 03:01:52;;;;;;;2.30;1.87;;;19.50;64.60;19.80;97127.00;;;;5091613;28;20195;-86
2022/08/09 03:04:22;;;;;;;2.00;1.70;;;19.40;64.60;19.80;97132.00;;;;5091833;28;20218;-87
2022/08/09 03:06:49;;;;;;;1.77;1.67;;;19.40;64.60;19.70;97129.00;;;;5091323;28;20215;-87
2022/08/09 03:09:20;;;;;;;1.90;1.80;;;19.40;64.70;19.70;97123.00;;;;5092463;28;20211;-87
2022/08/09 03:11:49;;;;;;;2.10;1.87;;;19.40;64.70;19.70;97132.00;;;;5092121;28;20284;-87
2022/08/09 03:14:21;;;;;;;2.13;2.03;;;19.40;64.80;19.70;97126.00;;;;5077818;28;20199;-87
2022/08/09 03:16:48;;;;;;;2.00;1.90;;;19.40;64.90;19.70;97135.00;;;;5086564;28;20219;-87
2022/08/09 03:19:18;;;;;;;3.03;1.80;;;19.30;64.80;19.60;97126.00;;;;5091857;28;20230;-87
2022/08/09 03:21:50;;;;;;;2.33;2.13;;;19.30;64.90;19.60;97120.00;;;;5091089;28;20195;-87
2022/08/09 03:24:18;;;;;;;4.37;2.10;;;19.30;64.90;19.60;97126.00;;;;5091592;28;20203;-87
2022/08/09 03:26:47;;;;;;;2.10;1.90;;;19.30;65.00;19.60;97123.00;;;;5090698;28;20223;-86
2022/08/09 03:29:16;;;;;;;2.07;1.87;;;19.30;65.00;19.50;97124.00;;;;5084488;28;20196;-87
2022/08/09 03:31:45;;;;;;;2.40;2.17;;;19.20;65.10;19.50;97131.00;;;;5099027;28;20234;-87
2022/08/09 03:34:13;;;;;;;2.07;1.97;;;19.20;65.20;19.50;97127.00;;;;5091202;28;20239;-88
2022/08/09 03:36:40;;;;;;;2.50;1.97;;;19.20;65.30;19.40;97131.00;;;;5090773;28;20580;-87
2022/08/09 03:39:07;;;;;;;2.10;2.00;;;19.10;65.40;19.40;97138.00;;;;5089369;28;20724;-86
2022/08/09 03:41:35;;;;;;;2.47;1.80;;;19.20;65.40;19.40;97134.00;;;;5073723;28;20291;-87
2022/08/09 03:44:02;;;;;;;1.93;1.80;;;19.10;66.30;19.40;97130.00;;;;5094761;28;20587;-87
2022/08/09 03:46:29;;;;;;;2.30;2.10;;;19.10;65.60;19.40;97135.00;;;;5095429;28;20314;-87
2022/08/09 03:49:01;;;;;;;2.20;2.03;;;19.10;65.70;19.30;97133.00;;;;5095756;28;20276;-87
2022/08/09 03:51:30;;;;;;;2.30;2.10;;;19.00;65.80;19.30;97136.00;;;;5094385;28;20195;-87
2022/08/09 03:53:58;;;;;;;2.23;2.13;;;19.00;65.80;19.30;97149.00;;;;5093264;28;20238;-87
2022/08/09 03:56:26;;;;;;;2.00;1.90;;;19.00;65.90;19.20;97145.00;;;;5093482;28;20664;-87
2022/08/09 03:58:53;;;;;;;1.97;1.87;;;19.00;65.80;19.20;97150.00;;;;5088864;28;20207;-89
2022/08/09 04:01:22;;;;;;;2.47;1.97;;;18.90;65.90;19.20;97152.00;;;;5092829;28;20648;-87
2022/08/09 04:03:53;;;;;;;2.00;1.90;;;18.90;66.00;19.20;97157.00;;;;5095269;28;20225;-87
2022/08/09 04:06:22;;;;;;;2.43;2.20;;;18.90;66.00;19.10;97151.00;;;;5095055;28;20803;-87
2022/08/09 04:08:49;;;;;;;3.00;2.20;;;18.90;66.10;19.10;97154.00;;;;5099490;28;20227;-87
2022/08/09 04:11:16;;;;;;;2.37;2.27;;;18.80;66.10;19.10;97157.00;;;;5103899;28;20644;-87
2022/08/09 04:13:43;;;;;;;2.17;2.07;;;18.80;66.20;19.10;97161.00;;;;5095755;28;20294;-87
2022/08/09 04:16:10;;;;;;;2.30;2.10;;;18.80;66.30;19.00;97161.00;;;;5093019;28;20267;-86
2022/08/09 04:18:39;;;;;;;2.33;2.13;;;18.80;66.40;19.00;97151.00;;;;5095339;28;20203;-86
2022/08/09 04:21:06;;;;;;;2.37;2.27;;;18.70;66.60;19.00;97150.00;;;;5095238;28;20226;-87
2022/08/09 04:23:35;;;;;;;2.40;2.30;;;18.70;66.70;19.00;97154.00;;;;5095109;28;20286;-87
2022/08/09 04:26:02;;;;;;;2.50;2.40;;;18.70;66.90;19.00;97158.00;;;;5094508;28;20673;-87
2022/08/09 04:28:29;;;;;;;2.50;2.30;;;18.70;66.90;19.00;97160.00;;;;5079800;28;20218;-86
2022/08/09 04:30:56;;;;;;;2.37;2.27;;;18.70;67.20;19.00;97154.00;;;;5078403;28;20191;-87
2022/08/09 04:33:24;;;;;;;2.70;2.50;;;18.70;67.30;19.00;97164.00;;;;5095086;28;20202;-86
2022/08/09 04:35:51;;;;;;;2.83;2.20;;;18.60;67.40;19.00;97166.00;;;;5094650;28;20264;-86
2022/08/09 04:38:18;;;;;;;2.57;2.40;;;18.60;67.60;19.00;97163.00;;;;5094628;28;20265;-87
2022/08/09 04:40:49;;;;;;;2.50;2.30;;;18.60;67.70;19.00;97167.00;;;;5094761;28;20231;-86
2022/08/09 04:43:17;;;;;;;2.70;2.50;;;18.60;67.90;19.00;97162.00;;;;5094626;28;20664;-86
2022/08/09 04:45:45;;;;;;;2.83;2.63;;;18.60;68.00;19.00;97161.00;;;;5093902;28;20744;-87
2022/08/09 04:48:13;;;;;;;2.60;2.40;;;18.60;68.10;19.00;97166.00;;;;5094576;28;20219;-86
2022/08/09 04:50:41;;;;;;;2.57;2.37;;;18.70;68.30;19.00;97166.00;;;;5094688;28;20249;-86
2022/08/09 04:53:09;;;;;;;2.70;2.50;;;18.60;68.50;19.00;97159.00;;;;5093631;28;20215;-86
2022/08/09 04:55:37;;;;;;;3.00;2.80;;;18.70;68.50;19.00;97174.00;;;;5093387;28;20266;-86
2022/08/09 04:58:06;;;;;;;2.90;2.70;;;18.70;68.60;19.10;97181.00;;;;5094549;28;20220;-87
2022/08/09 05:00:34;;;;;;;2.47;2.27;;;18.70;68.70;19.10;97179.00;;;;5092098;28;20235;-87
2022/08/09 05:03:02;;;;;;;2.47;2.37;;;18.70;68.70;19.10;97184.00;;;;5074403;28;20287;-87
2022/08/09 05:05:29;;;;;;;2.37;2.27;;;18.70;68.80;19.10;97186.00;;;;5073717;28;20641;-86
2022/08/09 05:07:57;;;;;;;2.83;2.60;;;18.70;68.90;19.10;97183.00;;;;5073812;28;20228;-87
2022/08/09 05:10:24;;;;;;;2.53;2.43;;;18.70;69.10;19.20;97186.00;;;;5074050;28;20214;-86
2022/08/09 05:12:51;;;;;;;2.43;2.23;;;18.80;69.30;19.20;97192.00;;;;5091561;28;20272;-86
2022/08/09 05:15:20;;;;;;;2.57;2.37;;;18.80;69.30;19.20;97191.00;;;;5093716;28;20282;-86
2022/08/09 05:17:47;;;;;;;2.40;2.20;;;18.80;69.40;19.20;97191.00;;;;5094275;28;20307;-87
2022/08/09 05:20:14;;;;;;;2.50;2.40;;;18.80;69.40;19.30;97184.00;;;;5094058;28;20566;-87
2022/08/09 05:22:42;;;;;;;2.20;2.10;;;18.90;69.50;19.30;97183.00;;;;5085810;28;20245;-87
2022/08/09 05:25:10;;;;;;;3.90;2.60;;;18.90;69.60;19.30;97190.00;;;;5074691;28;20215;-87
2022/08/09 05:27:37;;;;;;;2.57;2.37;;;18.90;69.70;19.40;97187.00;;;;5101388;28;20219;-87
2022/08/09 05:30:05;;;;;;;2.20;2.10;;;18.90;69.70;19.40;97189.00;;;;5094124;28;20278;-87
2022/08/09 05:32:34;;;;;;;2.30;2.20;;;19.00;69.90;19.40;97186.00;;;;5093622;28;20278;-86
2022/08/09 05:35:01;;;;;;;2.30;2.20;;;19.00;70.00;19.50;97191.00;;;;5093374;28;20700;-88
2022/08/09 05:37:28;;;;;;;2.10;2.00;;;19.00;69.90;19.50;97191.00;;;;5093386;28;20235;-87
2022/08/09 05:39:55;;;;;;;2.33;2.23;;;19.10;69.90;19.60;97192.00;;;;5093698;28;20229;-87
2022/08/09 05:42:22;;;;;;;2.37;2.17;;;19.10;70.00;19.60;97197.00;;;;5093407;28;20272;-86
2022/08/09 05:44:52;;;;;;;2.13;2.03;;;19.10;70.00;19.70;97197.00;;;;5093143;28;20743;-87
2022/08/09 05:47:20;;;;;;;3.10;2.60;;;19.20;70.10;19.70;97195.00;;;;5093253;28;20660;-87
2022/08/09 05:49:48;;;;;;;3.23;2.37;;;19.20;70.10;19.80;97185.00;;;;5093460;28;20274;-86
2022/08/09 05:52:15;;;;;;;2.03;1.93;;;19.30;70.20;19.80;97197.00;;;;5088492;28;20219;-86
2022/08/09 05:54:42;;;;;;;3.37;2.30;;;19.30;70.20;19.90;97198.00;;;;5073377;28;20200;-86
2022/08/09 05:57:10;;;;;;;2.83;2.17;;;19.40;70.20;19.90;97203.00;;;;5093265;28;20243;-87
2022/08/09 05:59:37;;;;;;;2.00;1.90;;;19.40;70.20;20.00;97196.00;;;;5091752;28;20191;-87
2022/08/09 06:02:04;;;;;;;2.30;2.20;;;19.40;70.20;20.00;97197.00;;;;5092742;28;20282;-87
2022/08/09 06:04:31;;;;;;;2.43;2.20;;;19.50;70.10;20.10;97207.00;;;;5080495;28;20301;-87
2022/08/09 06:07:00;;;;;;;2.50;2.30;;;19.60;70.10;20.10;97196.00;;;;5071084;28;20307;-87
2022/08/09 06:09:27;;;;;;;2.43;2.23;;;19.60;70.00;20.20;97203.00;;;;5081501;28;20666;-87
2022/08/09 06:11:54;;;;;;;2.07;1.97;;;19.70;69.80;20.30;97206.00;;;;5079628;28;20427;-86
2022/08/09 06:14:22;;;;;;;2.27;2.07;;;19.70;69.70;20.30;97200.00;;;;5092681;28;20280;-86
2022/08/09 06:16:49;;;;;;;2.30;2.10;;;19.80;69.90;20.40;97205.00;;;;5092831;28;20226;-86
2022/08/09 06:19:16;;;;;;;2.23;2.13;;;19.90;69.90;20.50;97212.00;;;;5092895;28;20203;-85
2022/08/09 06:21:44;;;;;;;2.13;2.03;;;19.90;69.60;20.50;97203.00;;;;5092479;28;20199;-86
2022/08/09 06:24:12;;;;;;;2.10;2.00;;;19.90;69.50;20.60;97208.00;;;;5089584;28;20210;-87
2022/08/09 06:26:40;;;;;;;1.70;1.60;;;20.00;69.50;20.70;97203.00;;;;5092231;28;20235;-87
2022/08/09 06:29:09;;;;;;;1.60;1.50;;;20.10;69.10;20.80;97223.00;;;;5093738;28;20256;-88
2022/08/09 06:31:37;;;;;;;1.67;1.50;;;20.20;69.00;20.90;97220.00;;;;5092498;28;20621;-88
2022/08/09 06:34:05;;;;;;;1.87;1.77;;;20.20;68.90;21.00;97227.00;;;;5092751;28;20653;-89
2022/08/09 06:36:32;;;;;;;1.70;1.60;;;20.30;68.80;21.00;97227.00;;;;5092685;28;20247;-89
2022/08/09 06:38:59;;;;;;;1.80;1.60;;;20.40;68.40;21.10;97226.00;;;;5092181;28;20689;-89
2022/08/09 06:41:28;;;;;;;2.10;1.60;;;20.50;68.10;21.20;97222.00;;;;5092327;28;20222;-88
2022/08/09 06:43:55;;;;;;;1.60;1.40;;;20.60;68.20;21.30;97221.00;;;;5101869;28;20210;-90
2022/08/09 06:46:23;;;;;;;1.53;1.43;;;20.70;67.50;21.40;97220.00;;;;5093249;28;20688;-88
2022/08/09 06:48:50;;;;;;;1.90;1.80;;;20.70;67.20;21.50;97222.00;;;;5086465;28;20197;-90
2022/08/09 06:51:17;;;;;;;2.30;1.50;;;20.80;66.90;21.60;97220.00;;;;5091885;28;20631;-89
2022/08/09 06:53:44;;;;;;;1.67;1.57;;;20.90;66.40;21.70;97222.00;;;;5080075;28;20236;-89
2022/08/09 06:56:11;;;;;;;2.20;1.80;;;21.00;66.60;21.80;97222.00;;;;5086085;28;20672;-90
2022/08/09 06:58:40;;;;;;;2.70;1.60;;;21.10;66.60;21.90;97220.00;;;;5084386;28;20242;-89
2022/08/09 07:01:07;;;;;;;1.87;1.60;;;21.20;66.50;22.00;97224.00;;;;5092174;28;20231;-89
2022/08/09 07:03:34;;;;;;;2.53;1.93;;;21.30;66.50;22.10;97220.00;;;;5092350;28;20344;-89
2022/08/09 07:06:02;;;;;;;1.90;1.80;;;21.30;66.30;22.20;97228.00;;;;5091313;28;20249;-88
2022/08/09 07:08:30;;;;;;;2.40;2.30;;;21.40;65.80;22.20;97231.00;;;;5092100;28;20276;-88
2022/08/09 07:10:57;;;;;;;3.53;2.13;;;21.50;65.70;22.40;97222.00;;;;5091690;28;20202;-88
2022/08/09 07:13:24;;;;;;;2.30;2.20;;;21.60;65.70;22.50;97232.00;;;;5091232;28;20229;-88
2022/08/09 07:15:53;;;;;;;2.00;1.90;;;21.70;65.60;22.60;97228.00;;;;5091510;28;20289;-88
2022/08/09 07:18:20;;;;;;;1.90;1.80;;;21.90;65.50;22.80;97235.00;;;;5092640;28;20233;-88
2022/08/09 07:20:49;;;;;;;2.53;1.93;;;22.00;65.50;22.90;97241.00;;;;5095990;28;20231;-88
2022/08/09 07:23:17;;;;;;;1.73;1.50;;;22.10;65.40;23.10;97240.00;;;;5088269;28;20197;-88
2022/08/09 07:25:44;;;;;;;2.37;2.17;;;22.30;65.30;23.30;97246.00;;;;5091197;28;20685;-89
2022/08/09 07:28:11;;;;;;;2.27;1.70;;;22.40;64.70;23.50;97253.00;;;;5094468;28;20211;-89
2022/08/09 07:30:39;;;;;;;1.57;1.47;;;22.60;64.20;23.70;97255.00;;;;5095493;28;20641;-90
2022/08/09 07:33:07;;;;;;;1.57;1.47;;;22.70;64.10;23.90;97253.00;;;;5095210;28;20264;-89
2022/08/09 07:35:34;;;;;;;1.30;1.20;;;22.90;64.00;24.10;97247.00;;;;5094454;28;20237;-86
2022/08/09 07:38:01;;;;;;;1.63;1.40;;;23.00;63.30;24.20;97256.00;;;;5094880;28;20302;-86
2022/08/09 07:40:29;;;;;;;1.50;1.40;;;23.20;62.70;24.40;97255.00;;;;5095678;28;20223;-85
2022/08/09 07:42:58;;;;;;;1.73;1.63;;;23.30;62.30;24.60;97270.00;;;;5095796;28;20203;-86
2022/08/09 07:45:28;;;;;;;1.53;1.43;;;23.50;62.00;24.80;97270.00;;;;5095205;28;20691;-85
2022/08/09 07:47:58;;;;;;;1.10;1.00;;;23.70;61.70;24.90;97272.00;;;;5096000;28;20220;-87
2022/08/09 07:50:29;;;;;;;1.50;1.40;;;23.80;61.30;25.10;97279.00;;;;5095821;28;20243;-84
2022/08/09 07:52:57;;;;;;;1.10;1.07;;;24.00;60.40;25.30;97286.00;;;;5084765;28;20755;-86
2022/08/09 07:55:24;;;;;;;2.80;1.47;;;24.20;60.30;25.50;97286.00;;;;5074454;28;20267;-85
2022/08/09 07:57:51;;;;;;;1.10;1.10;;;24.30;60.00;25.60;97284.00;;;;5088157;28;20224;-85
2022/08/09 08:00:20;;;;;;;1.87;1.40;;;24.50;59.90;25.80;97288.00;;;;5098757;28;20198;-85
2022/08/09 08:02:47;;;;;;;1.33;1.10;;;24.70;59.60;26.00;97290.00;;;;5121765;28;20205;-86
2022/08/09 08:05:15;;;;;;;1.60;1.20;;;24.80;59.30;26.10;97284.00;;;;5115327;28;20318;-88
2022/08/09 08:07:43;;;;;;;1.20;1.10;;;25.00;58.80;26.30;97296.00;;;;5115933;28;20218;-86
2022/08/09 08:10:11;;;;;;;2.13;1.10;;;25.10;58.40;26.40;97294.00;;;;5111790;28;20274;-85
2022/08/09 08:12:41;;;;;;;1.00;1.00;;;25.20;58.20;26.60;97291.00;;;;5095352;28;20203;-84
2022/08/09 08:15:11;;;;;;;1.13;1.13;;;25.40;57.80;26.70;97289.00;;;;5094605;28;20196;-86
2022/08/09 08:17:38;;;;;;;1.00;1.00;;;25.50;57.70;26.90;97291.00;;;;5095352;28;20218;-86
2022/08/09 08:20:07;;;;;;;2.13;0.93;;;25.70;57.30;27.00;97295.00;;;;5095527;28;20226;-87
2022/08/09 08:22:34;;;;;;;1.03;0.93;;;25.80;57.10;27.20;97286.00;;;;5087785;28;20693;-87
2022/08/09 08:25:03;;;;;;;1.17;0.90;;;26.00;56.90;27.40;97291.00;;;;5073975;28;20261;-85
2022/08/09 08:27:31;;;;;;;2.00;1.00;;;26.10;56.40;27.50;97295.00;;;;5075034;28;20223;-87
2022/08/09 08:29:58;;;;;;;0.90;0.90;;;26.30;56.30;27.70;97291.00;;;;5074266;28;20660;-86
2022/08/09 08:32:26;;;;;;;2.07;1.03;;;26.40;55.90;27.80;97296.00;;;;5094947;28;20207;-86
2022/08/09 08:34:53;;;;;;;1.23;1.10;;;26.50;55.60;28.00;97292.00;;;;5094665;28;20248;-87
2022/08/09 08:37:21;;;;;;;1.17;0.90;;;26.70;55.60;28.20;97291.00;;;;5094897;28;20298;-87
2022/08/09 08:39:48;;;;;;;1.53;1.00;;;26.80;55.30;28.30;97292.00;;;;5094729;28;20527;-86
2022/08/09 08:42:16;;;;;;;1.03;1.00;;;27.00;54.80;28.50;97303.00;;;;5094914;28;20237;-86
2022/08/09 08:44:44;;;;;;;0.97;0.97;;;27.10;54.70;28.70;97292.00;;;;5094307;28;20278;-87
2022/08/09 08:47:14;;;;;;;0.87;0.80;;;27.30;54.80;28.90;97297.00;;;;5094904;28;20330;-87
2022/08/09 08:49:42;;;;;;;0.90;0.73;;;27.50;54.00;29.10;97301.00;;;;5094257;28;20180;-87
2022/08/09 08:52:10;;;;;;;0.70;0.70;;;27.60;53.80;29.30;97299.00;;;;5090926;28;20645;-87
2022/08/09 08:54:39;;;;;;;0.80;0.80;;;27.80;53.40;29.40;97298.00;;;;5073842;28;20231;-87
2022/08/09 08:57:06;;;;;;;2.05;1.15;;;28.00;53.10;29.60;97305.00;;;;5073922;28;20251;-88
2022/08/09 08:59:35;;;;;;;1.23;1.10;;;28.20;52.90;29.80;97297.00;;;;5084761;28;20243;-87
2022/08/09 09:02:06;;;;;;;0.80;0.80;;;28.30;52.40;30.00;97295.00;;;;5090502;28;20469;-87
2022/08/09 09:04:35;;;;;;;0.93;0.70;;;28.50;52.00;30.20;97300.00;;;;5093019;28;20207;-87
2022/08/09 09:07:10;;;;;;;0.80;0.80;;;28.70;51.90;30.40;97299.00;;;;5092741;28;20243;-87
2022/08/09 09:09:44;;;;;;;0.60;0.60;;;28.90;51.00;30.50;97304.00;;;;5091762;28;20195;-88
2022/08/09 09:12:12;;;;;;;0.68;0.68;;;29.00;50.80;30.70;97301.00;;;;5093273;28;20245;-87
2022/08/09 09:14:43;;;;;;;0.82;0.77;;;29.20;50.60;30.90;97302.00;;;;5092292;28;20249;-87
2022/08/09 09:17:10;;;;;;;1.77;0.90;;;29.30;50.20;31.00;97299.00;;;;5091368;28;20736;-87
2022/08/09 09:19:37;;;;;;;1.45;0.73;;;29.40;50.20;31.20;97298.00;;;;5094154;28;20191;-88
2022/08/09 09:22:09;;;;;;;0.88;0.65;;;29.60;50.00;31.30;97299.00;;;;5090463;28;20246;-87
2022/08/09 09:24:39;;;;;;;1.33;0.70;;;29.70;49.00;31.50;97300.00;;;;5090863;28;20223;-87
2022/08/09 09:27:09;;;;;;;1.38;0.63;;;29.90;49.10;31.70;97283.00;;;;5091125;28;20215;-86
2022/08/09 09:29:42;;;;;;;1.05;0.88;;;30.00;48.60;31.80;97292.00;;;;5091054;28;20623;-87
2022/08/09 09:32:10;;;;;;;0.55;0.55;;;30.20;48.30;32.00;97294.00;;;;5093198;28;20230;-87
2022/08/09 09:34:41;;;;;;;0.90;0.60;;;30.40;48.30;32.20;97291.00;;;;5093068;28;20188;-87
2022/08/09 09:37:08;;;;;;;2.03;0.77;;;30.60;48.00;32.40;97300.00;;;;5092717;28;20219;-87
2022/08/09 09:39:35;;;;;;;0.90;0.90;;;30.70;47.60;32.60;97303.00;;;;5092639;28;20568;-87
2022/08/09 09:42:05;;;;;;;0.80;0.60;;;30.90;46.60;32.70;97294.00;;;;5091600;28;20399;-86
2022/08/09 09:44:34;;;;;;;1.65;0.50;;;31.00;46.10;32.80;97294.00;;;;5092686;28;20207;-87
2022/08/09 09:47:10;;;;;;;1.60;0.70;;;31.20;46.00;33.00;97290.00;;;;5093423;28;20314;-86
2022/08/09 09:49:38;;;;;;;0.52;0.52;;;31.30;45.20;33.20;97308.00;;;;5092803;28;20218;-87
2022/08/09 09:52:08;;;;;;;0.80;0.80;;;31.40;45.30;33.40;97296.00;;;;5091737;28;20202;-87
2022/08/09 09:54:38;;;;;;;1.45;0.70;;;31.60;45.30;33.60;97293.00;;;;5091965;28;20238;-86
2022/08/09 09:57:18;;;;;;;0.82;0.73;;;31.80;45.00;33.80;97307.00;;;;5093033;28;20251;-86
2022/08/09 09:59:48;;;;;;;0.70;0.55;;;31.90;44.10;34.10;97315.00;;;;5093225;28;20210;-86
2022/08/09 10:02:18;;;;;;;1.50;0.57;;;32.00;44.50;34.30;97305.00;;;;5093191;28;20199;-86
2022/08/09 10:05:01;;;;;;;0.60;0.60;;;32.20;44.40;34.50;97299.00;;;;5092815;28;20587;-87
2022/08/09 10:07:29;;;;;;;1.63;0.70;;;32.30;44.20;34.70;97310.00;;;;5093229;28;20641;-87
2022/08/09 10:09:59;;;;;;;0.50;0.50;;;32.60;44.50;34.90;97308.00;;;;5092603;28;20684;-86
2022/08/09 10:12:30;;;;;;;0.88;0.60;;;32.60;44.00;35.00;97303.00;;;;5087094;28;20190;-86
2022/08/09 10:15:06;;;;;;;2.75;0.70;;;32.80;43.60;35.20;97304.00;;;;5092543;28;20196;-86
2022/08/09 10:17:36;;;;;;;0.88;0.60;;;33.00;42.10;35.20;97308.00;;;;5092768;28;20400;-87
2022/08/09 10:20:21;;;;;;;1.85;0.73;;;33.10;42.00;35.20;97299.00;;;;5091059;28;20226;-86
2022/08/09 10:22:54;;;;;;;1.30;0.70;;;33.20;42.10;35.30;97309.00;;;;5091774;28;20571;-88
2022/08/09 10:25:23;;;;;;;0.88;0.70;;;33.30;42.20;35.30;97307.00;;;;5092405;28;20191;-87
2022/08/09 10:27:50;;;;;;;1.10;0.88;;;33.40;41.90;35.40;97305.00;;;;5072719;28;20208;-87
2022/08/09 10:30:18;;;;;;;0.55;0.55;;;33.50;41.80;35.40;97305.00;;;;5075784;28;20210;-88
2022/08/09 10:32:48;;;;;;;0.82;0.68;;;33.60;41.30;35.40;97298.00;;;;5091511;28;20238;-87
2022/08/09 10:35:15;;;;;;;2.28;0.60;;;33.70;40.50;35.40;97293.00;;;;5096391;28;20196;-86
2022/08/09 10:37:45;;;;;;;0.43;0.43;;;33.80;40.80;35.40;97293.00;;;;5091312;28;20302;-86
2022/08/09 10:40:13;;;;;;;0.85;0.70;;;33.80;40.50;35.40;97296.00;;;;5083968;28;20282;-88
2022/08/09 10:42:40;;;;;;;0.88;0.55;;;33.90;40.40;35.40;97303.00;;;;5086156;28;20282;-88
2022/08/09 10:45:11;;;;;;;1.35;0.73;;;34.00;40.60;35.40;97297.00;;;;5087301;28;20191;-87
2022/08/09 10:47:53;;;;;;;0.70;0.70;;;34.00;40.00;35.40;97296.00;;;;5091611;28;20304;-87
2022/08/09 10:50:27;;;;;;;3.58;0.57;;;34.10;39.80;35.40;97302.00;;;;5086404;28;20192;-87
2022/08/09 10:53:06;;;;;;;0.57;0.57;;;34.10;39.50;35.40;97295.00;;;;5082991;28;20222;-88
2022/08/09 10:55:35;;;;;;;1.17;0.40;;;34.20;39.00;35.30;97290.00;;;;5091369;28;20664;-86
2022/08/09 10:58:03;;;;;;;0.77;0.70;;;34.20;39.50;35.30;97289.00;;;;5088546;28;20219;-89
2022/08/09 11:00:38;;;;;;;0.60;0.60;;;34.30;39.40;35.20;97269.00;;;;5090456;28;20603;-87
2022/08/09 11:03:23;;;;;;;0.77;0.68;;;34.20;38.50;35.00;97293.00;;;;5083263;28;20229;-87
2022/08/09 11:06:20;;;;;;;1.48;0.60;;;34.20;38.00;34.80;97281.00;;;;5083424;28;20226;-86